createdAt,value
2022-11-04T22:34:42.733Z,15.83
2022-11-04T22:35:42.403Z,15.83
2022-11-04T22:36:42.422Z,15.77
2022-11-04T22:37:42.671Z,15.73
2022-11-04T22:38:42.442Z,15.79
2022-11-04T22:39:42.701Z,15.76
2022-11-04T22:40:42.735Z,15.68
2022-11-04T22:41:42.216Z,15.62
2022-11-04T22:42:42.741Z,15.65
2022-11-04T22:43:42.516Z,15.67
2022-11-04T22:44:42.987Z,15.64
2022-11-04T22:45:42.551Z,15.62
2022-11-04T22:46:42.572Z,15.59
2022-11-04T22:47:42.581Z,15.57
2022-11-04T22:48:42.869Z,15.54
2022-11-04T22:49:42.775Z,15.58
2022-11-04T22:50:42.969Z,15.61
2022-11-04T22:51:42.900Z,15.57
2022-11-04T22:52:42.676Z,15.62
2022-11-04T22:53:42.703Z,15.54
2022-11-04T22:54:42.701Z,15.59
2022-11-04T22:55:42.752Z,15.52
2022-11-04T22:56:42.488Z,15.57
2022-11-04T22:57:42.767Z,15.55
2022-11-04T22:58:43.041Z,15.57
2022-11-04T22:59:43.067Z,15.57
2022-11-04T23:00:42.835Z,15.58
2022-11-04T23:01:43.698Z,15.57
2022-11-04T23:02:43.451Z,15.61
2022-11-04T23:03:43.146Z,15.57
2022-11-04T23:04:42.918Z,15.58
2022-11-04T23:05:42.925Z,15.62
2022-11-04T23:06:43.288Z,15.64
2022-11-04T23:07:42.960Z,15.62
2022-11-04T23:08:42.993Z,15.62
2022-11-04T23:09:43.267Z,15.62
2022-11-04T23:10:43.283Z,15.61
2022-11-04T23:11:43.054Z,15.58
2022-11-04T23:12:43.069Z,15.59
2022-11-04T23:13:43.088Z,15.57
2022-11-04T23:14:43.376Z,15.58
2022-11-04T23:15:43.378Z,15.62
2022-11-04T23:16:43.408Z,15.59
2022-11-04T23:17:43.434Z,15.65
2022-11-04T23:18:42.931Z,15.64
2022-11-04T23:19:43.466Z,15.62
2022-11-04T23:20:43.489Z,15.62
2022-11-04T23:21:43.250Z,15.61
2022-11-04T23:22:43.613Z,15.67
2022-11-04T23:23:43.296Z,15.67
2022-11-04T23:24:43.573Z,15.67
2022-11-04T23:25:43.318Z,15.67
2022-11-04T23:26:43.615Z,15.64
2022-11-04T23:27:43.647Z,15.67
2022-11-04T23:28:43.649Z,15.62
2022-11-04T23:29:43.428Z,15.7
2022-11-04T23:30:43.695Z,15.72
2022-11-04T23:31:43.865Z,15.62
2022-11-04T23:32:43.477Z,15.65
2022-11-04T23:33:43.507Z,15.59
2022-11-04T23:34:43.531Z,15.65
2022-11-04T23:35:43.797Z,15.68
2022-11-04T23:36:43.840Z,15.65
2022-11-04T23:37:43.836Z,15.62
2022-11-04T23:38:50.262Z,15.59
2022-11-04T23:39:43.626Z,15.67
2022-11-04T23:40:43.898Z,15.7
2022-11-04T23:41:43.925Z,15.61
2022-11-04T23:42:43.681Z,15.58
2022-11-04T23:43:43.452Z,15.57
2022-11-04T23:44:44.178Z,15.62
2022-11-04T23:45:43.752Z,15.61
2022-11-04T23:46:48.086Z,15.62
2022-11-04T23:47:44.202Z,15.59
2022-11-04T23:48:44.104Z,15.61
2022-11-04T23:49:44.240Z,15.55
2022-11-04T23:50:43.851Z,15.58
2022-11-04T23:51:44.133Z,15.61
2022-11-04T23:52:44.192Z,15.55
2022-11-04T23:53:44.181Z,15.55
2022-11-04T23:54:44.278Z,15.55
2022-11-04T23:55:44.220Z,15.57
2022-11-04T23:56:44.234Z,15.54
2022-11-04T23:57:44.269Z,15.52
2022-11-04T23:58:44.032Z,15.51
2022-11-04T23:59:44.060Z,15.54
